PWSweather.com
Personal Weather Stations
Station Observations
KRMIDAS
Braemar, Lake Zurich, IL 60047

BraemarLake Zurich, IL 60047

Lat: 42.178, Lon: -88.102

Elevation: 837

Station Type: Davis Vantage Pro 2

http://tomkeramidas.com/cumulus/index.htm

Latest ConditionsUpdated 11:15:01 AM CST Saturday, Feb 28, 2015
Currently Today's Max Today's Min Today's Average
Temperature 19.7°F-6.8°C 19.7°F-6.8°C -15.2°F-26.2°C -4.6°F-20.3°C
Dew Point 4.9°F-15.1°C 4.9°F-15.1°C -19.1°F-28.4°C -10.3°F-23.5°C
Winds 2.0 mph S3.2 kmh S 3.0 mph S4.8 kmh S - 0.3 mph 0.5 kmh
Wind Gusts 8.0 mph12.9 kmh 10.0 mph16.1 kmh - -
Humidity 52% 91% 52% 77%
Pressure 30.79 in1042.7 mb 30.82 in1043.7 mb 30.74 in1041.0 mb -
Hour Temp Dew Point Humidity Winds Wind Gusts Pressure Precip Precip Rate Daily Precip Total
11:15 AM 19.7°F-6.8°C 4.9°F-15.1°C 52% 2.0 mph S3.2 kmh S 8.0 mph12.9 kmh 30.79 in1042.7 mb 0.00 in0.0 mm 0.00 in/hr0.0 mm/hr 0.00 in0.0 mm
11:00 AM 18.6°F-7.4°C 4.3°F-15.4°C 53% 3.0 mph S4.8 kmh S 10.0 mph16.1 kmh 30.79 in1042.7 mb 0.00 in0.0 mm 0.00 in/hr0.0 mm/hr 0.00 in0.0 mm
10:45 AM 18.8°F-7.3°C 4.5°F-15.3°C 53% 2.0 mph S3.2 kmh S 9.0 mph14.5 kmh 30.79 in1042.7 mb 0.00 in0.0 mm 0.00 in/hr0.0 mm/hr 0.00 in0.0 mm
10:30 AM 18.9°F-7.3°C 4.6°F-15.2°C 53% Calm Calm 5.0 mph8.0 kmh 30.80 in1043.0 mb 0.00 in0.0 mm 0.00 in/hr0.0 mm/hr 0.00 in0.0 mm
10:15 AM 17.8°F-7.9°C 4.3°F-15.4°C 55% 2.0 mph S3.2 kmh S 7.0 mph11.3 kmh 30.80 in1043.0 mb 0.00 in0.0 mm 0.00 in/hr0.0 mm/hr 0.00 in0.0 mm
10:00 AM 16.4°F-8.7°C 3.8°F-15.7°C 57% 1.0 mph S1.6 kmh S 7.0 mph11.3 kmh 30.80 in1043.0 mb 0.00 in0.0 mm 0.00 in/hr0.0 mm/hr 0.00 in0.0 mm
09:45 AM 14.5°F-9.7°C 2.8°F-16.2°C 59% 1.0 mph S1.6 kmh S 5.0 mph8.0 kmh 30.80 in1043.0 mb 0.00 in0.0 mm 0.00 in/hr0.0 mm/hr 0.00 in0.0 mm
09:30 AM 14.1°F-9.9°C 2.7°F-16.3°C 60% Calm Calm 3.0 mph4.8 kmh 30.81 in1043.3 mb 0.00 in0.0 mm 0.00 in/hr0.0 mm/hr 0.00 in0.0 mm
09:15 AM 12.6°F-10.8°C 2.0°F-16.7°C 62% Calm Calm 1.0 mph1.6 kmh 30.81 in1043.3 mb 0.00 in0.0 mm 0.00 in/hr0.0 mm/hr 0.00 in0.0 mm
09:00 AM 10.5°F-11.9°C 2.0°F-16.7°C 68% 1.0 mph S1.6 kmh S 6.0 mph9.7 kmh 30.82 in1043.7 mb 0.00 in0.0 mm 0.00 in/hr0.0 mm/hr 0.00 in0.0 mm
08:45 AM 8.2°F-13.2°C 1.6°F-16.9°C 74% 1.0 mph SSW1.6 kmh SSW 6.0 mph9.7 kmh 30.82 in1043.7 mb 0.00 in0.0 mm 0.00 in/hr0.0 mm/hr 0.00 in0.0 mm
08:30 AM 5.3°F-14.8°C 1.5°F-16.9°C 84% Calm Calm -- 30.81 in1043.3 mb 0.00 in0.0 mm 0.00 in/hr0.0 mm/hr 0.00 in0.0 mm
08:15 AM 2.2°F-16.6°C -0.1°F-17.8°C 90% Calm Calm -- 30.81 in1043.3 mb 0.00 in0.0 mm 0.00 in/hr0.0 mm/hr 0.00 in0.0 mm
08:00 AM -4.2°F-20.1°C -6.2°F-21.2°C 91% Calm Calm -- 30.81 in1043.3 mb 0.00 in0.0 mm 0.00 in/hr0.0 mm/hr 0.00 in0.0 mm
07:45 AM -9.3°F-22.9°C -11.9°F-24.4°C 88% Calm Calm -- 30.80 in1043.0 mb 0.00 in0.0 mm 0.00 in/hr0.0 mm/hr 0.00 in0.0 mm
07:30 AM -11.9°F-24.4°C -14.9°F-26.1°C 86% Calm Calm -- 30.80 in1043.0 mb 0.00 in0.0 mm 0.00 in/hr0.0 mm/hr 0.00 in0.0 mm
07:15 AM -13.7°F-25.4°C -17.1°F-27.3°C 84% Calm Calm -- 30.80 in1043.0 mb 0.00 in0.0 mm 0.00 in/hr0.0 mm/hr 0.00 in0.0 mm
07:00 AM -14.8°F-26.0°C -18.5°F-28.1°C 83% Calm Calm -- 30.80 in1043.0 mb 0.00 in0.0 mm 0.00 in/hr0.0 mm/hr 0.00 in0.0 mm
06:45 AM -15.2°F-26.2°C -19.1°F-28.4°C 82% Calm Calm -- 30.79 in1042.7 mb 0.00 in0.0 mm 0.00 in/hr0.0 mm/hr 0.00 in0.0 mm
06:30 AM -15.1°F-26.2°C -19.0°F-28.3°C 82% Calm Calm -- 30.79 in1042.7 mb 0.00 in0.0 mm 0.00 in/hr0.0 mm/hr 0.00 in0.0 mm
06:15 AM -15.1°F-26.2°C -19.0°F-28.3°C 82% Calm Calm -- 30.79 in1042.7 mb 0.00 in0.0 mm 0.00 in/hr0.0 mm/hr 0.00 in0.0 mm
06:00 AM -15.0°F-26.1°C -18.9°F-28.3°C 82% Calm Calm -- 30.79 in1042.7 mb 0.00 in0.0 mm 0.00 in/hr0.0 mm/hr 0.00 in0.0 mm
05:45 AM -14.9°F-26.1°C -19.0°F-28.3°C 81% Calm Calm -- 30.79 in1042.7 mb 0.00 in0.0 mm 0.00 in/hr0.0 mm/hr 0.00 in0.0 mm
05:30 AM -14.8°F-26.0°C -18.9°F-28.3°C 81% Calm Calm -- 30.78 in1042.3 mb 0.00 in0.0 mm 0.00 in/hr0.0 mm/hr 0.00 in0.0 mm
05:15 AM -14.6°F-25.9°C -18.7°F-28.2°C 81% Calm Calm -- 30.77 in1042.0 mb 0.00 in0.0 mm 0.00 in/hr0.0 mm/hr 0.00 in0.0 mm
05:00 AM -14.2°F-25.7°C -18.1°F-27.8°C 82% Calm Calm -- 30.77 in1042.0 mb 0.00 in0.0 mm 0.00 in/hr0.0 mm/hr 0.00 in0.0 mm
04:45 AM -14.0°F-25.6°C -18.1°F-27.8°C 81% Calm Calm -- 30.76 in1041.7 mb 0.00 in0.0 mm 0.00 in/hr0.0 mm/hr 0.00 in0.0 mm
04:30 AM -13.9°F-25.5°C -18.0°F-27.8°C 81% Calm Calm -- 30.76 in1041.7 mb 0.00 in0.0 mm 0.00 in/hr0.0 mm/hr 0.00 in0.0 mm
04:15 AM -13.6°F-25.3°C -17.8°F-27.7°C 81% Calm Calm -- 30.75 in1041.3 mb 0.00 in0.0 mm 0.00 in/hr0.0 mm/hr 0.00 in0.0 mm
04:00 AM -13.4°F-25.2°C -17.3°F-27.4°C 82% Calm Calm -- 30.75 in1041.3 mb 0.00 in0.0 mm 0.00 in/hr0.0 mm/hr 0.00 in0.0 mm
03:45 AM -13.1°F-25.1°C -17.0°F-27.2°C 82% Calm Calm -- 30.74 in1041.0 mb 0.00 in0.0 mm 0.00 in/hr0.0 mm/hr 0.00 in0.0 mm
03:30 AM -12.6°F-24.8°C -16.5°F-26.9°C 82% Calm Calm -- 30.74 in1041.0 mb 0.00 in0.0 mm 0.00 in/hr0.0 mm/hr 0.00 in0.0 mm
03:15 AM -12.4°F-24.7°C -16.6°F-27.0°C 81% Calm Calm -- 30.75 in1041.3 mb 0.00 in0.0 mm 0.00 in/hr0.0 mm/hr 0.00 in0.0 mm
03:00 AM -11.8°F-24.3°C -15.8°F-26.6°C 82% Calm Calm -- 30.75 in1041.3 mb 0.00 in0.0 mm 0.00 in/hr0.0 mm/hr 0.00 in0.0 mm
02:45 AM -11.5°F-24.2°C -15.2°F-26.2°C 83% Calm Calm -- 30.75 in1041.3 mb 0.00 in0.0 mm 0.00 in/hr0.0 mm/hr 0.00 in0.0 mm
02:30 AM -11.3°F-24.1°C -15.5°F-26.4°C 81% Calm Calm -- 30.76 in1041.7 mb 0.00 in0.0 mm 0.00 in/hr0.0 mm/hr 0.00 in0.0 mm
02:15 AM -10.4°F-23.6°C -14.4°F-25.8°C 82% Calm Calm -- 30.76 in1041.7 mb 0.00 in0.0 mm 0.00 in/hr0.0 mm/hr 0.00 in0.0 mm
02:00 AM -9.5°F-23.1°C -13.3°F-25.2°C 83% Calm Calm -- 30.76 in1041.7 mb 0.00 in0.0 mm 0.00 in/hr0.0 mm/hr 0.00 in0.0 mm
01:45 AM -9.1°F-22.8°C -12.6°F-24.8°C 84% Calm Calm -- 30.76 in1041.7 mb 0.00 in0.0 mm 0.00 in/hr0.0 mm/hr 0.00 in0.0 mm
01:30 AM -9.0°F-22.8°C -12.3°F-24.6°C 85% Calm Calm -- 30.76 in1041.7 mb 0.00 in0.0 mm 0.00 in/hr0.0 mm/hr 0.00 in0.0 mm
01:15 AM -9.3°F-22.9°C -13.1°F-25.1°C 83% Calm Calm -- 30.76 in1041.7 mb 0.00 in0.0 mm 0.00 in/hr0.0 mm/hr 0.00 in0.0 mm
01:00 AM -8.7°F-22.6°C -12.5°F-24.7°C 83% Calm Calm -- 30.76 in1041.7 mb 0.00 in0.0 mm 0.00 in/hr0.0 mm/hr 0.00 in0.0 mm
12:45 AM -8.4°F-22.4°C -12.2°F-24.6°C 83% Calm Calm -- 30.76 in1041.7 mb 0.00 in0.0 mm 0.00 in/hr0.0 mm/hr 0.00 in0.0 mm
12:30 AM -8.0°F-22.2°C -12.0°F-24.4°C 82% Calm Calm -- 30.76 in1041.7 mb 0.00 in0.0 mm 0.00 in/hr0.0 mm/hr 0.00 in0.0 mm
12:15 AM -7.3°F-21.8°C -11.1°F-23.9°C 83% Calm Calm -- 30.76 in1041.7 mb 0.00 in0.0 mm 0.00 in/hr0.0 mm/hr 0.00 in0.0 mm
12:00 AM -7.5°F-21.9°C -11.1°F-23.9°C 84% Calm Calm -- 30.76 in1041.7 mb 0.00 in0.0 mm 0.00 in/hr0.0 mm/hr 0.00 in0.0 mm